Ferrin, Illinois
Current Conditions -  °F | °C
As of 9:35 PM on Friday 31 Oct 2014 (Local Time) from KENL Reporting Station
Clear Clear  
Wind Chill: 28°   Ceiling: Unl
Heat Index: 37°   Visibility: 10mi
Dew Point: 22°   Wind: 15mph
Humidity: 55%   Direction: 350°N
Pressure: 30.33"   Gusts: NA
Location:  38.5905°N, 89.3709°W
Report Text: KENL 010235Z AUTO 35013KT 10SM CLR 03/M05 A3033 RMK AO2 T00271055
Loading
Personal Weather Stations






























Interactive Weather Map
Tropical Storm Tracking
New forecast layout! Learn more

10-Day Weather Forecast

Advertisements
Track Severe Weather on mobile